createdAt,value
2022-11-29T00:01:38.534Z,100469.69
2022-11-29T00:04:09.938Z,100437.13
2022-11-29T00:06:37.841Z,100462.16
2022-11-29T00:09:09.894Z,100428.34
2022-11-29T00:11:56.717Z,100473.97
2022-11-29T00:14:28.526Z,100476.59
2022-11-29T00:16:59.296Z,100466.84
2022-11-29T00:19:27.409Z,100429.78
2022-11-29T00:21:56.004Z,100462.97
2022-11-29T00:24:24.388Z,100473.34
2022-11-29T00:26:52.936Z,100466.19
2022-11-29T00:29:20.966Z,100471.72
2022-11-29T00:31:50.217Z,100452.94
2022-11-29T00:34:18.186Z,100480.22
2022-11-29T00:36:46.457Z,100477.78
2022-11-29T00:39:16.260Z,100458.88
2022-11-29T00:41:44.513Z,100481.03
2022-11-29T00:44:19.664Z,100473.28
2022-11-29T00:46:48.258Z,100479.59
2022-11-29T00:49:17.822Z,100463.06
2022-11-29T00:51:46.241Z,100444.34
2022-11-29T00:54:14.259Z,100437.81
2022-11-29T00:56:42.272Z,100486.06
2022-11-29T00:59:10.966Z,100489.94
2022-11-29T01:01:38.943Z,100491.75
2022-11-29T01:04:07.166Z,100476.25
2022-11-29T01:06:38.728Z,100476.03
2022-11-29T01:09:07.163Z,100493.53
2022-11-29T01:11:35.820Z,100483.53
2022-11-29T01:14:04.750Z,100496.38
2022-11-29T01:16:34.532Z,100499.25
2022-11-29T01:19:02.635Z,100499.84
2022-11-29T01:21:30.966Z,100488.19
2022-11-29T01:24:01.616Z,100458.03
2022-11-29T01:26:31.741Z,100486.34
2022-11-29T01:29:00.869Z,100467.38
2022-11-29T01:31:30.638Z,100501.81
2022-11-29T01:34:00.529Z,100470.03
2022-11-29T01:36:30.222Z,100483.47
2022-11-29T01:39:02.252Z,100504.84
2022-11-29T01:41:31.879Z,100494.69
2022-11-29T01:44:03.759Z,100479.16
2022-11-29T01:46:34.001Z,100452.66
2022-11-29T01:49:05.571Z,100499.88
2022-11-29T01:51:35.998Z,100493.78
2022-11-29T01:54:06.416Z,100494.00
2022-11-29T01:56:35.822Z,100516.97
2022-11-29T01:59:07.932Z,100510.88
2022-11-29T02:01:37.200Z,100473.53
2022-11-29T02:04:05.471Z,100520.41
2022-11-29T02:06:34.171Z,100495.28
2022-11-29T02:09:02.375Z,100505.28
2022-11-29T02:12:05.849Z,100516.94
2022-11-29T02:15:00.148Z,100538.44
2022-11-29T02:17:34.435Z,100524.97
2022-11-29T02:20:44.315Z,100521.69
2022-11-29T02:23:34.358Z,100525.59
2022-11-29T02:26:17.193Z,100511.69
2022-11-29T02:29:42.133Z,100521.97
2022-11-29T02:33:00.935Z,100539.94
2022-11-29T02:35:45.045Z,100542.41
2022-11-29T02:38:37.067Z,100553.34
2022-11-29T02:41:31.259Z,100526.75
2022-11-29T02:44:24.426Z,100537.31
2022-11-29T02:47:09.305Z,100541.00
2022-11-29T02:49:59.479Z,100557.75
2022-11-29T02:52:37.684Z,100549.50
2022-11-29T02:55:11.770Z,100520.56
2022-11-29T02:57:44.582Z,100538.44
2022-11-29T03:00:17.521Z,100575.16
2022-11-29T03:02:54.481Z,100573.25
2022-11-29T03:05:31.298Z,100574.25
2022-11-29T03:08:08.919Z,100547.69
2022-11-29T03:10:51.503Z,100552.78
2022-11-29T03:13:26.187Z,100570.50
2022-11-29T03:16:01.084Z,100551.16
2022-11-29T03:18:35.797Z,100599.25
2022-11-29T03:21:15.294Z,100604.53
2022-11-29T03:23:49.639Z,100587.66
2022-11-29T03:26:22.837Z,100565.16
2022-11-29T03:28:58.665Z,100530.13
2022-11-29T03:31:33.533Z,100588.00
2022-11-29T03:34:12.370Z,100584.75
2022-11-29T03:36:49.054Z,100582.94
2022-11-29T03:39:24.235Z,100550.03
2022-11-29T03:42:00.134Z,100542.31
2022-11-29T03:44:32.559Z,100602.28
2022-11-29T03:47:06.037Z,100572.69
2022-11-29T03:49:40.485Z,100588.41
2022-11-29T03:52:18.131Z,100605.56
2022-11-29T03:54:58.956Z,100601.84
2022-11-29T03:57:36.291Z,100611.66
2022-11-29T04:00:08.616Z,100610.94
2022-11-29T04:03:13.134Z,100623.00
2022-11-29T04:06:07.908Z,100604.84
2022-11-29T04:09:00.366Z,100619.38
2022-11-29T04:12:05.925Z,100621.63
2022-11-29T04:15:15.209Z,100622.25
2022-11-29T04:18:16.000Z,100620.00
2022-11-29T04:21:14.359Z,100606.28
2022-11-29T04:24:00.352Z,100625.28
2022-11-29T04:27:24.826Z,100608.09
2022-11-29T04:30:07.338Z,100617.28
2022-11-29T04:33:14.202Z,100630.56
2022-11-29T04:36:06.799Z,100621.75
2022-11-29T04:39:04.334Z,100630.56
2022-11-29T04:41:54.483Z,100639.28
2022-11-29T04:44:43.136Z,100602.16
2022-11-29T04:47:35.544Z,100636.47
2022-11-29T04:50:26.679Z,100636.47
2022-11-29T04:53:25.530Z,100620.88
2022-11-29T04:56:02.992Z,100639.84
2022-11-29T04:58:38.995Z,100604.91
2022-11-29T05:01:16.676Z,100654.72
2022-11-29T05:03:56.909Z,100639.78
2022-11-29T05:06:34.542Z,100655.53
2022-11-29T05:09:13.479Z,100655.94
2022-11-29T05:11:55.181Z,100652.66
2022-11-29T05:14:32.437Z,100669.41
2022-11-29T05:17:22.821Z,100656.06
2022-11-29T05:20:02.442Z,100666.84
2022-11-29T05:22:37.228Z,100673.41
2022-11-29T05:25:31.828Z,100681.00
2022-11-29T05:28:10.027Z,100645.09
2022-11-29T05:31:03.638Z,100678.88
2022-11-29T05:33:50.096Z,100678.47
2022-11-29T05:36:29.895Z,100692.78
2022-11-29T05:39:11.177Z,100701.50
2022-11-29T05:41:56.938Z,100701.34
2022-11-29T05:44:32.316Z,100707.88
2022-11-29T05:47:03.088Z,100715.16
2022-11-29T05:49:39.933Z,100707.38
2022-11-29T05:52:24.978Z,100714.09
2022-11-29T05:55:08.427Z,100708.81
2022-11-29T05:57:43.441Z,100685.72
2022-11-29T06:00:15.105Z,100717.44
2022-11-29T06:02:50.267Z,100696.16
2022-11-29T06:05:27.474Z,100683.44
2022-11-29T06:08:04.454Z,100716.16
2022-11-29T06:10:36.782Z,100728.63
2022-11-29T06:13:18.805Z,100729.16
2022-11-29T06:16:09.846Z,100725.53
2022-11-29T06:18:58.406Z,100709.72
2022-11-29T06:21:37.407Z,100750.63
2022-11-29T06:24:28.162Z,100736.94
2022-11-29T06:27:10.701Z,100744.19
2022-11-29T06:29:46.301Z,100716.38
2022-11-29T06:32:25.678Z,100762.00
2022-11-29T06:34:59.666Z,100761.00
2022-11-29T06:37:34.815Z,100752.81
2022-11-29T06:40:04.005Z,100746.84
2022-11-29T06:42:31.893Z,100765.81
2022-11-29T06:45:00.725Z,100762.13
2022-11-29T06:47:32.638Z,100751.50
2022-11-29T06:50:17.033Z,100770.75
2022-11-29T06:52:54.604Z,100778.28
2022-11-29T06:55:29.017Z,100769.13
2022-11-29T06:58:06.196Z,100756.63
2022-11-29T07:00:43.632Z,100728.63
2022-11-29T07:03:34.574Z,100748.66
2022-11-29T07:06:10.321Z,100775.00
2022-11-29T07:08:41.966Z,100769.03
2022-11-29T07:11:15.216Z,100780.03
2022-11-29T07:13:44.246Z,100777.59
2022-11-29T07:16:19.430Z,100805.38
2022-11-29T07:18:56.195Z,100795.56
2022-11-29T07:21:37.213Z,100769.22
2022-11-29T07:24:17.988Z,100807.81
2022-11-29T07:26:58.040Z,100806.59
2022-11-29T07:29:37.359Z,100808.59
2022-11-29T07:32:17.090Z,100772.22
2022-11-29T07:34:56.774Z,100797.16
2022-11-29T07:37:35.403Z,100826.75
2022-11-29T07:40:12.301Z,100826.56
2022-11-29T07:42:52.554Z,100815.13
2022-11-29T07:45:27.520Z,100821.94
2022-11-29T07:47:55.453Z,100821.69
2022-11-29T07:50:23.954Z,100804.66
2022-11-29T07:52:52.032Z,100805.69
2022-11-29T07:55:24.283Z,100796.50
2022-11-29T07:57:52.974Z,100826.50
2022-11-29T08:00:21.862Z,100840.63
2022-11-29T08:02:51.339Z,100816.50
2022-11-29T08:05:19.649Z,100847.69
2022-11-29T08:07:47.966Z,100856.28
2022-11-29T08:10:17.584Z,100828.88
2022-11-29T08:12:50.118Z,100850.72
2022-11-29T08:15:18.675Z,100856.00
2022-11-29T08:17:47.133Z,100857.38
2022-11-29T08:20:16.550Z,100860.63
2022-11-29T08:22:44.889Z,100870.38
2022-11-29T08:25:13.641Z,100835.28
2022-11-29T08:27:41.648Z,100860.50
2022-11-29T08:30:11.435Z,100871.94
2022-11-29T08:32:39.472Z,100859.25
2022-11-29T08:35:07.495Z,100880.88
2022-11-29T08:37:35.447Z,100872.69
2022-11-29T08:40:04.608Z,100864.59
2022-11-29T08:42:32.401Z,100841.03
2022-11-29T08:45:00.185Z,100893.28
2022-11-29T08:47:38.404Z,100878.72
2022-11-29T08:50:12.230Z,100904.66
2022-11-29T08:52:59.960Z,100904.84
2022-11-29T08:55:32.436Z,100896.19
2022-11-29T08:58:03.632Z,100913.78
2022-11-29T09:00:32.612Z,100910.03
2022-11-29T09:03:17.914Z,100912.50
2022-11-29T09:05:45.875Z,100914.69
2022-11-29T09:08:14.019Z,100917.31
2022-11-29T09:10:44.816Z,100870.25
2022-11-29T09:13:13.423Z,100917.31
2022-11-29T09:15:42.621Z,100913.94
2022-11-29T09:18:12.389Z,100912.78
2022-11-29T09:20:43.725Z,100927.88
2022-11-29T09:23:12.130Z,100918.69
2022-11-29T09:25:40.284Z,100931.16
2022-11-29T09:28:08.656Z,100931.78
2022-11-29T09:30:38.296Z,100920.16
2022-11-29T09:33:06.252Z,100926.06
2022-11-29T09:35:36.157Z,100933.44
2022-11-29T09:38:06.120Z,100954.28
2022-11-29T09:40:39.801Z,100950.44
2022-11-29T09:43:19.036Z,100944.06
2022-11-29T09:45:51.283Z,100953.72
2022-11-29T09:48:54.554Z,100955.81
2022-11-29T09:51:32.521Z,100966.38
2022-11-29T09:54:17.588Z,100965.00
2022-11-29T09:56:48.440Z,100972.09
2022-11-29T09:59:22.950Z,100958.63
2022-11-29T10:01:56.421Z,100975.19
2022-11-29T10:04:28.981Z,100966.81
2022-11-29T10:07:03.780Z,100969.38
2022-11-29T10:09:38.221Z,100968.00
2022-11-29T10:12:15.414Z,100944.59
2022-11-29T10:14:50.082Z,100971.53
2022-11-29T10:17:31.637Z,100964.69
2022-11-29T10:20:04.554Z,100965.41
2022-11-29T10:22:42.894Z,100962.28
2022-11-29T10:25:20.373Z,100967.16
2022-11-29T10:27:48.275Z,100969.78
2022-11-29T10:30:17.193Z,100973.31
2022-11-29T10:32:51.647Z,100963.50
2022-11-29T10:35:20.885Z,100971.50
2022-11-29T10:38:22.746Z,100954.75
2022-11-29T10:40:47.936Z,100970.94
2022-11-29T10:43:16.540Z,100962.13
2022-11-29T10:45:50.564Z,100961.94
2022-11-29T10:48:21.025Z,100977.03
2022-11-29T10:50:51.697Z,100970.56
2022-11-29T10:53:25.259Z,100973.22
2022-11-29T10:56:00.290Z,100972.66
2022-11-29T10:58:30.117Z,100970.56
2022-11-29T11:01:01.286Z,100984.06
2022-11-29T11:03:39.890Z,100978.56
2022-11-29T11:06:12.087Z,100977.94
2022-11-29T11:08:44.950Z,100970.81
2022-11-29T11:11:13.496Z,100943.38
2022-11-29T11:13:41.944Z,100958.94
2022-11-29T11:16:17.088Z,100957.56
2022-11-29T11:18:46.135Z,100988.84
2022-11-29T11:21:16.979Z,100992.56
2022-11-29T11:23:54.734Z,100996.91
2022-11-29T11:26:23.699Z,100985.22
2022-11-29T11:28:56.141Z,100997.16
2022-11-29T11:31:31.572Z,101000.59
2022-11-29T11:34:18.972Z,100993.75
2022-11-29T11:36:47.123Z,100985.22
2022-11-29T11:39:22.836Z,100992.03
2022-11-29T11:42:10.100Z,100997.91
2022-11-29T11:44:49.816Z,100971.34
2022-11-29T11:47:21.238Z,100985.22
2022-11-29T11:49:51.207Z,100994.19
2022-11-29T11:52:23.665Z,100997.41
2022-11-29T11:54:55.737Z,101001.06
2022-11-29T11:57:26.626Z,101009.38
2022-11-29T11:59:57.855Z,100999.94
2022-11-29T12:02:30.002Z,101015.66
2022-11-29T12:05:03.589Z,101013.81
2022-11-29T12:08:06.601Z,101015.66
2022-11-29T12:10:30.021Z,101014.53
2022-11-29T12:13:00.440Z,101025.34
2022-11-29T12:15:32.351Z,101008.09
2022-11-29T12:18:07.113Z,101012.22
2022-11-29T12:20:40.600Z,101026.50
2022-11-29T12:23:24.537Z,101003.59
2022-11-29T12:25:59.030Z,101033.63
2022-11-29T12:28:29.976Z,101037.66
2022-11-29T12:31:08.855Z,101039.13
2022-11-29T12:33:49.500Z,101044.78
2022-11-29T12:36:32.052Z,101047.78
2022-11-29T12:39:40.577Z,101050.84
2022-11-29T12:42:19.649Z,101052.22
2022-11-29T12:44:57.449Z,101023.28
2022-11-29T12:47:36.211Z,101056.44
2022-11-29T12:50:25.557Z,101051.13
2022-11-29T12:53:07.648Z,101016.28
2022-11-29T12:55:49.419Z,101034.03
2022-11-29T12:58:29.031Z,101055.97
2022-11-29T13:01:10.516Z,101057.59
2022-11-29T13:03:52.598Z,101057.59
2022-11-29T13:06:29.199Z,101055.72
2022-11-29T13:09:16.600Z,101062.47
2022-11-29T13:11:54.700Z,101059.00
2022-11-29T13:14:42.506Z,101059.63
2022-11-29T13:17:23.078Z,101051.06
2022-11-29T13:19:55.933Z,101017.91
2022-11-29T13:22:32.687Z,101055.22
2022-11-29T13:25:04.234Z,101036.84
2022-11-29T13:27:36.139Z,101051.94
2022-11-29T13:30:07.124Z,101049.94
2022-11-29T13:32:37.368Z,101058.94
2022-11-29T13:35:09.702Z,101055.72
2022-11-29T13:37:43.689Z,101026.25
2022-11-29T13:40:25.834Z,101058.25
2022-11-29T13:43:02.365Z,101050.94
2022-11-29T13:45:38.830Z,101030.94
2022-11-29T13:48:27.764Z,101050.94
2022-11-29T13:50:57.304Z,101047.31
2022-11-29T13:53:27.013Z,101022.91
2022-11-29T13:56:01.668Z,101055.50
2022-11-29T13:58:38.539Z,101053.50
2022-11-29T14:01:12.785Z,101054.31
2022-11-29T14:03:42.809Z,101029.78
2022-11-29T14:06:13.992Z,101026.97
2022-11-29T14:09:17.333Z,101041.34
2022-11-29T14:11:44.503Z,101043.38
2022-11-29T14:14:23.898Z,101052.38
2022-11-29T14:16:57.085Z,101054.00
2022-11-29T14:19:31.622Z,101041.34
2022-11-29T14:22:31.667Z,101055.28
2022-11-29T14:25:49.761Z,101057.72
2022-11-29T14:28:30.235Z,101061.19
2022-11-29T14:30:58.596Z,101063.41
2022-11-29T14:34:03.575Z,101076.81
2022-11-29T14:36:52.600Z,101074.56
2022-11-29T14:39:31.505Z,101065.63
2022-11-29T14:42:14.710Z,101068.72
2022-11-29T14:44:51.478Z,101084.25
2022-11-29T14:47:31.920Z,101085.25
2022-11-29T14:50:06.952Z,101077.03
2022-11-29T14:52:38.879Z,101069.59
2022-11-29T14:55:29.117Z,101083.59
2022-11-29T14:58:22.766Z,101082.78
2022-11-29T15:01:11.074Z,101084.78
2022-11-29T15:03:47.768Z,101083.09
2022-11-29T15:06:25.669Z,101074.25
2022-11-29T15:09:01.967Z,101074.13
2022-11-29T15:11:53.027Z,101079.63
2022-11-29T15:14:34.896Z,101082.28
2022-11-29T15:17:20.813Z,101081.44
2022-11-29T15:20:16.394Z,101076.34
2022-11-29T15:22:49.476Z,101076.53
2022-11-29T15:25:19.859Z,101084.47
2022-11-29T15:27:54.857Z,101085.28
2022-11-29T15:30:30.990Z,101088.75
2022-11-29T15:33:01.096Z,101092.41
2022-11-29T15:35:29.449Z,101091.38
2022-11-29T15:37:58.728Z,101072.75
2022-11-29T15:40:34.763Z,101101.34
2022-11-29T15:43:15.110Z,101090.78
2022-11-29T15:45:49.061Z,101083.94
2022-11-29T15:48:24.826Z,101106.66
2022-11-29T15:50:58.509Z,101100.09
2022-11-29T15:53:34.481Z,101112.94
2022-11-29T15:56:05.136Z,101107.00
2022-11-29T15:58:35.458Z,101086.81
2022-11-29T16:01:07.549Z,101111.03
2022-11-29T16:03:39.686Z,101100.56
2022-11-29T16:06:19.839Z,101112.59
2022-11-29T16:08:51.131Z,101097.28
2022-11-29T16:11:24.074Z,101112.03
2022-11-29T16:14:18.958Z,101129.81
2022-11-29T16:16:50.154Z,101134.09
2022-11-29T16:19:37.066Z,101132.28
2022-11-29T16:22:14.787Z,101082.25
2022-11-29T16:24:52.778Z,101126.78
2022-11-29T16:27:22.863Z,101112.22
2022-11-29T16:29:55.349Z,101124.97
2022-11-29T16:32:34.705Z,101109.13
2022-11-29T16:35:13.356Z,101134.72
2022-11-29T16:37:43.336Z,101131.28
2022-11-29T16:40:23.550Z,101131.06
2022-11-29T16:43:23.940Z,101102.00
2022-11-29T16:46:30.357Z,101122.94
2022-11-29T16:49:01.199Z,101118.84
2022-11-29T16:51:37.796Z,101125.78
2022-11-29T16:54:21.765Z,101130.06
2022-11-29T16:56:52.676Z,101112.44
2022-11-29T16:59:37.706Z,101108.13
2022-11-29T17:02:11.260Z,101117.06
2022-11-29T17:04:39.204Z,101117.72
2022-11-29T17:07:08.945Z,101107.22
2022-11-29T17:09:37.013Z,101129.38
2022-11-29T17:12:06.894Z,101087.19
2022-11-29T17:14:35.040Z,101107.59
2022-11-29T17:17:02.984Z,101099.13
2022-11-29T17:22:50.697Z,101102.06
2022-11-29T17:28:19.864Z,101146.09
2022-11-29T17:31:04.142Z,101093.31
2022-11-29T17:33:35.633Z,101079.03
2022-11-29T17:36:44.372Z,101081.31
2022-11-29T17:39:30.881Z,101156.47
2022-11-29T17:42:09.437Z,101106.91
2022-11-29T17:44:54.243Z,101076.31
2022-11-29T17:47:36.962Z,101122.41
2022-11-29T17:50:17.245Z,101091.78
2022-11-29T17:52:52.412Z,101139.34
2022-11-29T17:55:41.817Z,101153.38
2022-11-29T17:58:43.910Z,101094.81
2022-11-29T18:08:00.868Z,101167.53
2022-11-29T18:11:03.192Z,101137.38
2022-11-29T18:13:51.934Z,101136.44
2022-11-29T18:17:04.263Z,101189.69
2022-11-29T18:19:52.907Z,101137.28
2022-11-29T18:22:46.716Z,101184.56
2022-11-29T18:25:38.576Z,101184.75
2022-11-29T18:35:06.880Z,101150.66
2022-11-29T18:38:13.496Z,101110.72
2022-11-29T18:40:54.708Z,101173.91
2022-11-29T18:43:46.970Z,101197.63
2022-11-29T18:46:40.832Z,101173.00
2022-11-29T18:49:30.334Z,101192.69
2022-11-29T18:52:10.749Z,101200.81
2022-11-29T18:54:58.981Z,101158.50
2022-11-29T18:57:27.319Z,101130.75
2022-11-29T19:00:16.878Z,101204.00
2022-11-29T19:04:00.595Z,101203.53
2022-11-29T19:06:40.158Z,101190.75
2022-11-29T19:10:00.510Z,101135.00
2022-11-29T19:12:43.256Z,101214.34
2022-11-29T19:16:00.284Z,101204.97
2022-11-29T19:22:36.544Z,101167.56
2022-11-29T19:31:54.278Z,101227.47
2022-11-29T19:34:58.488Z,101186.91
2022-11-29T19:37:44.145Z,101217.78
2022-11-29T19:40:32.066Z,101198.00
2022-11-29T19:50:14.488Z,101217.06
2022-11-29T19:53:01.565Z,101223.50
2022-11-29T19:55:53.336Z,101235.41
2022-11-29T19:58:21.652Z,101196.47
2022-11-29T20:00:49.441Z,101218.31
2022-11-29T20:03:37.902Z,101199.72
2022-11-29T20:06:37.200Z,101213.03
2022-11-29T20:12:38.213Z,101250.81
2022-11-29T20:15:55.922Z,101203.81
2022-11-29T20:18:51.946Z,101263.03
2022-11-29T20:21:56.546Z,101252.28
2022-11-29T20:25:02.578Z,101248.22
2022-11-29T20:28:01.415Z,101230.97
2022-11-29T20:35:02.047Z,101254.81
2022-11-29T20:56:01.564Z,101226.16
2022-11-29T21:02:29.659Z,101287.66
2022-11-29T21:05:45.811Z,101215.16
2022-11-29T21:09:28.569Z,101262.19
2022-11-29T21:15:56.553Z,101295.06
2022-11-29T21:27:23.775Z,101289.78
2022-11-29T21:29:53.516Z,101280.94
2022-11-29T21:32:29.028Z,101293.41
2022-11-29T21:34:57.156Z,101293.41
2022-11-29T21:37:36.611Z,101288.78
2022-11-29T21:40:04.950Z,101270.69
2022-11-29T21:42:37.571Z,101258.19
2022-11-29T21:45:14.885Z,101260.50
2022-11-29T21:47:44.094Z,101235.66
2022-11-29T21:50:13.564Z,101293.91
2022-11-29T21:52:41.769Z,101294.91
2022-11-29T21:55:10.418Z,101255.28
2022-11-29T21:57:41.256Z,101266.00
2022-11-29T22:00:10.520Z,101301.34
2022-11-29T22:02:38.498Z,101297.06
2022-11-29T22:05:07.997Z,101310.28
2022-11-29T22:07:35.984Z,101307.16
2022-11-29T22:10:09.915Z,101283.44
2022-11-29T22:12:51.238Z,101292.50
2022-11-29T22:15:24.462Z,101283.78
2022-11-29T22:17:52.949Z,101292.50
2022-11-29T22:20:21.145Z,101290.19
2022-11-29T22:22:49.346Z,101286.25
2022-11-29T22:25:17.412Z,101263.94
2022-11-29T22:27:46.759Z,101297.78
2022-11-29T22:30:14.960Z,101286.25
2022-11-29T22:32:43.421Z,101288.72
2022-11-29T22:35:11.272Z,101300.56
2022-11-29T22:37:39.175Z,101295.47
2022-11-29T22:40:08.461Z,101279.03
2022-11-29T22:42:36.448Z,101256.00
2022-11-29T22:45:06.437Z,101298.44
2022-11-29T22:47:34.431Z,101274.16
2022-11-29T22:50:02.465Z,101272.34
2022-11-29T22:52:30.670Z,101289.41
2022-11-29T22:55:04.285Z,101299.81
2022-11-29T22:57:33.261Z,101274.31
2022-11-29T23:00:01.847Z,101290.44
2022-11-29T23:02:31.293Z,101302.78
2022-11-29T23:04:59.657Z,101315.00
2022-11-29T23:07:28.199Z,101298.84
2022-11-29T23:09:56.607Z,101296.22
2022-11-29T23:12:25.258Z,101304.81
2022-11-29T23:14:56.569Z,101279.63
2022-11-29T23:17:25.041Z,101311.06
2022-11-29T23:19:54.819Z,101306.66
2022-11-29T23:22:23.347Z,101260.25
2022-11-29T23:24:51.269Z,101325.56
2022-11-29T23:27:19.567Z,101312.06
2022-11-29T23:29:47.852Z,101309.00
2022-11-29T23:32:15.745Z,101322.97
2022-11-29T23:34:44.164Z,101310.63
2022-11-29T23:37:14.519Z,101314.06
2022-11-29T23:39:42.450Z,101302.91
2022-11-29T23:42:10.796Z,101330.03
2022-11-29T23:44:39.123Z,101330.19
2022-11-29T23:47:07.151Z,101293.97
2022-11-29T23:49:40.183Z,101301.56
2022-11-29T23:52:09.489Z,101335.31
2022-11-29T23:54:38.819Z,101319.34
2022-11-29T23:57:07.180Z,101305.69
2022-11-29T23:59:35.091Z,101326.91
